createdAt,value
2019-01-19T00:01:39.532Z,0.27
2019-01-19T00:05:11.300Z,0.26
2019-01-19T00:08:11.617Z,0.17
2019-01-19T00:11:13.081Z,0.48
2019-01-19T00:14:32.596Z,0.32
2019-01-19T00:17:18.853Z,0.22
2019-01-19T00:20:09.064Z,0.29
2019-01-19T00:22:58.317Z,0.22
2019-01-19T00:26:07.319Z,0.27
2019-01-19T00:28:49.763Z,0.55
2019-01-19T00:31:29.323Z,0.63
2019-01-19T00:34:42.739Z,0.73
2019-01-19T00:37:24.052Z,0.43
2019-01-19T00:40:57.763Z,0.25
2019-01-19T00:43:52.556Z,0.34
2019-01-19T00:46:43.332Z,0.21
2019-01-19T00:49:31.292Z,0.26
2019-01-19T00:52:35.169Z,0.20
2019-01-19T00:55:16.812Z,0.09
2019-01-19T00:58:09.612Z,0.13
2019-01-19T01:00:53.383Z,0.08
2019-01-19T01:03:35.691Z,0.02
2019-01-19T01:06:43.078Z,0.05
2019-01-19T01:09:48.255Z,0.03
2019-01-19T01:12:59.269Z,0.04
2019-01-19T01:15:55.537Z,-0.05
2019-01-19T01:18:57.378Z,0.05
2019-01-19T01:22:08.931Z,0.17
2019-01-19T01:25:37.842Z,0.46
2019-01-19T01:28:34.202Z,0.23
2019-01-19T01:31:10.899Z,0.23
2019-01-19T01:34:23.223Z,0.53
2019-01-19T01:37:26.806Z,0.25
2019-01-19T01:40:15.879Z,0.06
2019-01-19T01:43:22.101Z,0.19
2019-01-19T01:46:44.631Z,0.24
2019-01-19T01:49:28.549Z,0.19
2019-01-19T01:52:29.707Z,0.23
2019-01-19T01:55:19.341Z,0.25
2019-01-19T01:58:16.823Z,0.19
2019-01-19T02:01:05.964Z,0.15
2019-01-19T02:04:06.026Z,0.07
2019-01-19T02:07:19.323Z,0.42
2019-01-19T02:10:32.598Z,0.20
2019-01-19T02:13:11.988Z,0.12
2019-01-19T02:15:52.878Z,0.11
2019-01-19T02:19:02.668Z,0.07
2019-01-19T02:22:09.448Z,0.00
2019-01-19T02:25:29.100Z,0.06
2019-01-19T02:28:16.002Z,-0.07
2019-01-19T02:31:31.740Z,-0.08
2019-01-19T02:34:35.545Z,-0.16
2019-01-19T02:37:35.319Z,-0.18
2019-01-19T02:40:48.250Z,-0.15
2019-01-19T02:43:43.181Z,-0.11
2019-01-19T02:46:58.726Z,-0.07
2019-01-19T02:50:23.547Z,-0.06
2019-01-19T02:53:24.780Z,-0.14
2019-01-19T02:56:01.852Z,-0.10
2019-01-19T02:59:15.178Z,-0.08
2019-01-19T03:02:03.653Z,-0.03
2019-01-19T03:05:15.842Z,-0.02
2019-01-19T03:08:05.838Z,-0.04
2019-01-19T03:11:32.154Z,0.04
2019-01-19T03:14:23.108Z,-0.04
2019-01-19T03:17:29.039Z,0.32
2019-01-19T03:20:20.686Z,0.01
2019-01-19T03:23:18.554Z,-0.05
2019-01-19T03:26:02.564Z,-0.09
2019-01-19T03:28:56.576Z,-0.04
2019-01-19T03:31:55.389Z,0.04
2019-01-19T03:34:52.914Z,0.03
2019-01-19T03:38:08.941Z,0.07
2019-01-19T03:41:09.273Z,0.00
2019-01-19T03:44:20.367Z,-0.01
2019-01-19T03:47:18.827Z,-0.13
2019-01-19T03:50:16.873Z,-0.18
2019-01-19T03:53:32.580Z,-0.24
2019-01-19T03:56:31.375Z,-0.21
2019-01-19T03:59:44.183Z,-0.22
2019-01-19T04:02:35.933Z,-0.20
2019-01-19T04:05:44.977Z,-0.26
2019-01-19T04:09:10.699Z,-0.25
2019-01-19T04:11:52.066Z,-0.29
2019-01-19T04:14:47.538Z,-0.27
2019-01-19T04:17:38.625Z,-0.30
2019-01-19T04:20:47.511Z,-0.26
2019-01-19T04:23:16.408Z,-0.27
2019-01-19T04:26:27.237Z,-0.22
2019-01-19T04:28:56.147Z,-0.21
2019-01-19T04:31:25.063Z,-0.18
2019-01-19T04:33:53.955Z,0.16
2019-01-19T04:36:22.868Z,-0.08
2019-01-19T04:38:51.731Z,-0.09
2019-01-19T04:41:20.618Z,-0.13
2019-01-19T04:43:49.520Z,-0.19
2019-01-19T04:46:18.430Z,-0.28
2019-01-19T04:48:47.314Z,-0.34
2019-01-19T04:51:16.216Z,-0.41
2019-01-19T04:53:45.107Z,-0.41
2019-01-19T04:56:14.038Z,-0.44
2019-01-19T04:58:42.936Z,-0.41
2019-01-19T05:01:11.832Z,-0.06
2019-01-19T05:03:40.714Z,-0.29
2019-01-19T05:06:12.381Z,-0.34
2019-01-19T05:08:38.492Z,-0.32
2019-01-19T05:11:07.415Z,-0.37
2019-01-19T05:13:36.355Z,-0.36
2019-01-19T05:16:05.189Z,-0.42
2019-01-19T05:18:34.067Z,-0.42
2019-01-19T05:21:02.965Z,-0.43
2019-01-19T05:23:31.832Z,-0.34
2019-01-19T05:26:00.723Z,-0.29
2019-01-19T05:28:29.589Z,0.04
2019-01-19T05:30:59.286Z,-0.20
2019-01-19T05:33:27.386Z,-0.28
2019-01-19T05:35:56.267Z,-0.35
2019-01-19T05:38:25.161Z,-0.41
2019-01-19T05:40:54.068Z,0.00
2019-01-19T05:43:22.918Z,0.16
2019-01-19T05:45:51.836Z,-0.19
2019-01-19T05:48:20.733Z,-0.28
2019-01-19T05:50:49.605Z,-0.33
2019-01-19T05:53:18.524Z,-0.35
2019-01-19T05:55:47.387Z,-0.40
2019-01-19T05:58:16.243Z,-0.35
2019-01-19T06:00:45.147Z,-0.34
2019-01-19T06:03:14.074Z,-0.37
2019-01-19T06:05:42.952Z,-0.42
2019-01-19T06:08:11.814Z,-0.41
2019-01-19T06:10:40.728Z,-0.42
2019-01-19T06:13:09.592Z,-0.42
2019-01-19T06:15:38.502Z,-0.41
2019-01-19T06:18:07.384Z,-0.47
2019-01-19T06:20:36.260Z,-0.45
2019-01-19T06:23:05.153Z,-0.49
2019-01-19T06:25:34.034Z,-0.53
2019-01-19T06:28:02.970Z,-0.49
2019-01-19T06:30:31.832Z,-0.53
2019-01-19T06:33:00.731Z,-0.52
2019-01-19T06:35:29.609Z,-0.62
2019-01-19T06:37:58.501Z,-0.69
2019-01-19T06:40:27.387Z,-0.66
2019-01-19T06:42:56.287Z,-0.73
2019-01-19T06:45:26.172Z,-0.70
2019-01-19T06:47:55.064Z,-0.68
2019-01-19T06:50:23.975Z,-0.29
2019-01-19T06:52:52.870Z,-0.51
2019-01-19T06:55:33.111Z,-0.54
2019-01-19T06:58:02.008Z,-0.55
2019-01-19T07:00:30.930Z,-0.55
2019-01-19T07:02:59.808Z,-0.57
2019-01-19T07:05:28.708Z,-0.52
2019-01-19T07:07:57.600Z,-0.55
2019-01-19T07:10:27.055Z,-0.46
2019-01-19T07:12:55.946Z,-0.48
2019-01-19T07:15:24.847Z,-0.49
2019-01-19T07:17:53.743Z,-0.15
2019-01-19T07:20:25.286Z,-0.34
2019-01-19T07:22:54.182Z,-0.35
2019-01-19T07:25:23.061Z,-0.41
2019-01-19T07:27:52.039Z,-0.45
2019-01-19T07:30:20.854Z,-0.49
2019-01-19T07:32:49.779Z,-0.49
2019-01-19T07:35:18.651Z,-0.51
2019-01-19T07:37:47.576Z,-0.49
2019-01-19T07:40:17.148Z,-0.49
2019-01-19T07:42:46.294Z,-0.49
2019-01-19T07:45:15.544Z,-0.52
2019-01-19T07:47:45.334Z,-0.52
2019-01-19T07:50:15.965Z,-0.47
2019-01-19T07:52:44.838Z,-0.08
2019-01-19T07:55:15.132Z,-0.33
2019-01-19T07:57:44.027Z,-0.34
2019-01-19T08:00:15.713Z,-0.34
2019-01-19T08:02:44.634Z,-0.38
2019-01-19T08:05:13.583Z,-0.28
2019-01-19T08:07:42.542Z,-0.14
2019-01-19T08:10:13.737Z,-0.15
2019-01-19T08:12:42.660Z,-0.13
2019-01-19T08:15:14.416Z,-0.14
2019-01-19T08:17:45.077Z,-0.10
2019-01-19T08:20:14.018Z,-0.06
2019-01-19T08:22:43.060Z,-0.12
2019-01-19T08:25:11.984Z,0.04
2019-01-19T08:27:41.299Z,0.25
2019-01-19T08:30:18.848Z,0.39
2019-01-19T08:32:47.723Z,0.45
2019-01-19T08:35:17.286Z,0.47
2019-01-19T08:37:46.297Z,0.52
2019-01-19T08:40:17.772Z,0.61
2019-01-19T08:42:47.622Z,0.60
2019-01-19T08:45:16.850Z,0.80
2019-01-19T08:47:45.771Z,0.83
2019-01-19T08:50:14.949Z,1.30
2019-01-19T08:52:43.864Z,1.45
2019-01-19T08:55:12.749Z,2.17
2019-01-19T08:57:41.632Z,2.08
2019-01-19T09:00:13.686Z,2.07
2019-01-19T09:02:42.613Z,2.11
2019-01-19T09:05:11.502Z,2.84
2019-01-19T09:07:40.382Z,2.88
2019-01-19T09:10:11.387Z,2.88
2019-01-19T09:12:40.289Z,2.87
2019-01-19T09:15:11.128Z,3.12
2019-01-19T09:17:40.004Z,2.76
2019-01-19T09:20:10.501Z,2.71
2019-01-19T09:22:39.382Z,2.95
2019-01-19T09:25:09.964Z,2.57
2019-01-19T09:27:38.827Z,2.50
2019-01-19T09:30:16.910Z,2.36
2019-01-19T09:32:45.844Z,2.18
2019-01-19T09:35:15.267Z,2.18
2019-01-19T09:37:44.144Z,2.20
2019-01-19T09:40:14.067Z,2.17
2019-01-19T09:42:42.957Z,2.32
2019-01-19T09:45:11.998Z,2.38
2019-01-19T09:47:40.865Z,2.86
2019-01-19T09:50:11.467Z,2.98
2019-01-19T09:52:40.353Z,2.98
2019-01-19T09:55:09.311Z,3.26
2019-01-19T09:57:38.184Z,3.41
2019-01-19T10:00:10.438Z,3.47
2019-01-19T10:02:39.302Z,3.86
2019-01-19T10:05:11.883Z,4.31
2019-01-19T10:07:48.256Z,4.62
2019-01-19T10:10:15.795Z,4.72
2019-01-19T10:12:45.608Z,4.53
2019-01-19T10:15:15.863Z,4.76
2019-01-19T10:17:45.023Z,4.89
2019-01-19T10:20:19.410Z,5.28
2019-01-19T10:22:48.982Z,5.49
2019-01-19T10:25:18.190Z,5.62
2019-01-19T10:27:51.449Z,6.29
2019-01-19T10:30:22.839Z,6.86
2019-01-19T10:32:54.793Z,7.06
2019-01-19T10:35:24.003Z,6.84
2019-01-19T10:37:57.817Z,6.65
2019-01-19T10:40:22.259Z,6.55
2019-01-19T10:42:51.367Z,6.62
2019-01-19T10:45:22.882Z,6.42
2019-01-19T10:47:51.972Z,6.39
2019-01-19T10:50:21.081Z,6.40
2019-01-19T10:52:50.312Z,6.24
2019-01-19T10:55:22.573Z,6.30
2019-01-19T10:57:51.867Z,6.51
2019-01-19T11:00:26.724Z,6.64
2019-01-19T11:02:56.817Z,6.59
2019-01-19T11:05:27.728Z,7.02
2019-01-19T11:08:03.447Z,7.45
2019-01-19T11:10:29.062Z,7.93
2019-01-19T11:13:00.235Z,8.12
2019-01-19T11:15:28.104Z,8.50
2019-01-19T11:17:57.671Z,8.82
2019-01-19T11:20:31.156Z,9.00
2019-01-19T11:23:00.954Z,9.28
2019-01-19T11:25:33.414Z,9.45
2019-01-19T11:28:05.478Z,9.50
2019-01-19T11:30:37.455Z,9.62
2019-01-19T11:33:06.716Z,9.21
2019-01-19T11:35:38.478Z,9.12
2019-01-19T11:38:12.013Z,9.14
2019-01-19T11:40:40.493Z,9.12
2019-01-19T11:43:11.257Z,8.86
2019-01-19T11:45:43.727Z,8.83
2019-01-19T11:48:20.613Z,8.66
2019-01-19T11:50:49.574Z,8.68
2019-01-19T11:53:20.279Z,8.17
2019-01-19T11:55:49.748Z,7.83
2019-01-19T11:58:18.964Z,7.35
2019-01-19T12:00:48.127Z,6.91
2019-01-19T12:03:17.299Z,6.59
2019-01-19T12:05:46.542Z,6.46
2019-01-19T12:08:19.674Z,6.18
2019-01-19T12:10:45.199Z,5.88
2019-01-19T12:13:14.385Z,5.67
2019-01-19T12:15:43.734Z,5.83
2019-01-19T12:18:15.238Z,5.60
2019-01-19T12:20:49.460Z,5.41
2019-01-19T12:23:20.386Z,5.14
2019-01-19T12:25:48.254Z,5.12
2019-01-19T12:28:17.473Z,5.22
2019-01-19T12:30:55.108Z,4.98
2019-01-19T12:33:23.572Z,4.90
2019-01-19T12:35:52.766Z,4.97
2019-01-19T12:38:26.924Z,5.27
2019-01-19T12:40:53.398Z,4.99
2019-01-19T12:43:28.687Z,4.99
2019-01-19T12:46:05.817Z,5.08
2019-01-19T12:48:36.593Z,5.05
2019-01-19T12:51:11.608Z,4.87
2019-01-19T12:53:40.575Z,4.86
2019-01-19T12:56:19.307Z,4.85
2019-01-19T12:58:48.436Z,4.82
2019-01-19T13:01:20.239Z,5.21
2019-01-19T13:03:52.050Z,5.12
2019-01-19T13:06:32.558Z,4.90
2019-01-19T13:09:12.548Z,4.85
2019-01-19T13:12:21.206Z,4.91
2019-01-19T13:15:34.859Z,4.86
2019-01-19T13:18:41.029Z,4.79
2019-01-19T13:21:57.397Z,4.77
2019-01-19T13:25:06.077Z,4.77
2019-01-19T13:27:47.329Z,4.72
2019-01-19T13:31:06.013Z,4.71
2019-01-19T13:34:14.649Z,4.60
2019-01-19T13:37:10.815Z,4.41
2019-01-19T13:40:24.690Z,4.51
2019-01-19T13:43:45.750Z,4.51
2019-01-19T13:46:55.395Z,4.48
2019-01-19T13:50:00.369Z,4.53
2019-01-19T13:53:05.683Z,4.61
2019-01-19T13:56:03.882Z,4.44
2019-01-19T13:58:45.312Z,4.49
2019-01-19T14:01:41.417Z,4.38
2019-01-19T14:05:09.113Z,4.44
2019-01-19T14:07:59.225Z,4.33
2019-01-19T14:11:00.812Z,4.26
2019-01-19T14:14:23.326Z,4.24
2019-01-19T14:17:28.440Z,4.05
2019-01-19T14:20:45.205Z,3.99
2019-01-19T14:23:34.614Z,4.45
2019-01-19T14:26:59.424Z,4.12
2019-01-19T14:29:53.567Z,3.94
2019-01-19T14:33:04.869Z,3.99
2019-01-19T14:36:15.875Z,3.96
2019-01-19T14:38:57.061Z,3.89
2019-01-19T14:42:03.912Z,3.70
2019-01-19T14:45:30.006Z,3.76
2019-01-19T14:48:35.756Z,3.66
2019-01-19T14:51:34.982Z,3.67
2019-01-19T14:54:14.636Z,3.63
2019-01-19T14:57:31.171Z,3.60
2019-01-19T15:00:41.516Z,3.38
2019-01-19T15:03:32.733Z,3.48
2019-01-19T15:06:42.339Z,3.46
2019-01-19T15:09:20.252Z,3.44
2019-01-19T15:12:20.470Z,3.33
2019-01-19T15:15:18.750Z,3.29
2019-01-19T15:18:19.931Z,3.16
2019-01-19T15:21:29.469Z,3.03
2019-01-19T15:24:56.293Z,3.05
2019-01-19T15:28:00.398Z,3.03
2019-01-19T15:31:11.856Z,2.96
2019-01-19T15:34:22.713Z,2.96
2019-01-19T15:37:29.178Z,2.80
2019-01-19T15:40:18.230Z,2.79
2019-01-19T15:43:35.515Z,2.69
2019-01-19T15:46:46.524Z,2.58
2019-01-19T15:50:12.192Z,2.85
2019-01-19T15:52:53.805Z,2.64
2019-01-19T15:56:12.445Z,2.55
2019-01-19T15:59:21.525Z,2.45
2019-01-19T16:02:43.251Z,2.41
2019-01-19T16:05:42.062Z,2.24
2019-01-19T16:09:18.226Z,2.25
2019-01-19T16:12:37.109Z,2.17
2019-01-19T16:15:42.987Z,2.14
2019-01-19T16:18:34.648Z,2.06
2019-01-19T16:21:51.478Z,2.00
2019-01-19T16:24:46.097Z,1.99
2019-01-19T16:27:57.098Z,1.94
2019-01-19T16:31:22.629Z,1.84
2019-01-19T16:34:15.237Z,1.70
2019-01-19T16:37:34.704Z,1.56
2019-01-19T16:40:54.384Z,1.57
2019-01-19T16:43:35.882Z,1.46
2019-01-19T16:46:25.798Z,1.52
2019-01-19T16:49:25.270Z,1.52
2019-01-19T16:53:06.867Z,1.54
2019-01-19T16:55:54.779Z,1.53
2019-01-19T16:58:54.959Z,1.56
2019-01-19T17:01:45.753Z,1.51
2019-01-19T17:05:05.885Z,1.45
2019-01-19T17:08:28.047Z,1.74
2019-01-19T17:11:21.702Z,1.51
2019-01-19T17:14:46.529Z,1.42
2019-01-19T17:17:58.575Z,1.43
2019-01-19T17:21:06.376Z,1.29
2019-01-19T17:24:02.047Z,1.37
2019-01-19T17:27:05.931Z,1.25
2019-01-19T17:30:11.727Z,1.27
2019-01-19T17:33:01.820Z,1.20
2019-01-19T17:36:18.843Z,1.22
2019-01-19T17:39:40.131Z,1.15
2019-01-19T17:42:46.386Z,1.11
2019-01-19T17:45:24.578Z,1.19
2019-01-19T17:48:23.579Z,1.42
2019-01-19T17:51:33.662Z,1.28
2019-01-19T17:54:46.074Z,1.23
2019-01-19T17:57:40.918Z,1.20
2019-01-19T18:00:37.006Z,1.07
2019-01-19T18:03:40.931Z,1.06
2019-01-19T18:07:04.668Z,1.05
2019-01-19T18:10:14.559Z,1.06
2019-01-19T18:13:07.770Z,1.03
2019-01-19T18:15:56.317Z,1.00
2019-01-19T18:19:03.006Z,1.10
2019-01-19T18:22:25.725Z,1.02
2019-01-19T18:25:18.275Z,1.04
2019-01-19T18:28:03.136Z,0.99
2019-01-19T18:31:00.986Z,1.01
2019-01-19T18:34:11.783Z,0.99
2019-01-19T18:37:27.611Z,1.00
2019-01-19T18:40:39.391Z,0.90
2019-01-19T18:43:32.491Z,0.91
2019-01-19T18:46:55.225Z,0.89
2019-01-19T18:50:01.874Z,0.84
2019-01-19T18:53:09.509Z,0.83
2019-01-19T18:56:22.822Z,0.69
2019-01-19T18:59:09.646Z,0.80
2019-01-19T19:02:10.435Z,0.74
2019-01-19T19:04:49.275Z,0.72
2019-01-19T19:08:00.213Z,0.65
2019-01-19T19:11:14.476Z,0.50
2019-01-19T19:14:10.950Z,0.59
2019-01-19T19:17:03.777Z,0.66
2019-01-19T19:19:56.560Z,0.59
2019-01-19T19:22:48.402Z,0.66
2019-01-19T19:26:17.558Z,0.61
2019-01-19T19:29:37.652Z,0.42
2019-01-19T19:32:44.119Z,0.76
2019-01-19T19:35:55.332Z,0.49
2019-01-19T19:38:54.079Z,0.52
2019-01-19T19:42:05.110Z,0.38
2019-01-19T19:45:38.446Z,0.39
2019-01-19T19:48:48.270Z,0.34
2019-01-19T19:51:57.266Z,0.24
2019-01-19T19:54:25.039Z,0.17
2019-01-19T19:56:56.863Z,0.08
2019-01-19T19:59:26.153Z,0.43
2019-01-19T20:01:58.144Z,0.24
2019-01-19T20:04:27.505Z,0.27
2019-01-19T20:06:56.635Z,0.20
2019-01-19T20:09:27.788Z,0.08
2019-01-19T20:12:05.499Z,0.11
2019-01-19T20:14:34.809Z,0.14
2019-01-19T20:17:04.052Z,0.19
2019-01-19T20:19:33.503Z,0.05
2019-01-19T20:22:02.710Z,-0.02
2019-01-19T20:24:31.800Z,-0.05
2019-01-19T20:27:01.196Z,-0.05
2019-01-19T20:29:32.938Z,-0.03
2019-01-19T20:32:02.243Z,-0.05
2019-01-19T20:34:34.304Z,-0.07
2019-01-19T20:37:03.454Z,-0.11
2019-01-19T20:39:34.130Z,-0.12
2019-01-19T20:42:02.219Z,-0.10
2019-01-19T20:44:34.787Z,-0.12
2019-01-19T20:47:03.664Z,-0.15
2019-01-19T20:49:32.548Z,-0.21
2019-01-19T20:52:01.449Z,-0.23
2019-01-19T20:54:30.319Z,-0.26
2019-01-19T20:56:59.358Z,-0.26
2019-01-19T20:59:28.218Z,-0.22
2019-01-19T21:01:57.133Z,-0.31
2019-01-19T21:04:26.015Z,-0.35
2019-01-19T21:06:54.909Z,-0.42
2019-01-19T21:09:23.840Z,-0.46
2019-01-19T21:11:52.741Z,-0.49
2019-01-19T21:14:21.709Z,-0.53
2019-01-19T21:16:50.553Z,-0.25
2019-01-19T21:19:19.464Z,-0.47
2019-01-19T21:21:48.343Z,-0.45
2019-01-19T21:24:17.252Z,-0.48
2019-01-19T21:26:46.124Z,-0.56
2019-01-19T21:29:15.051Z,-0.54
2019-01-19T21:31:43.946Z,-0.55
2019-01-19T21:34:12.826Z,-0.56
2019-01-19T21:36:41.742Z,-0.55
2019-01-19T21:39:10.634Z,-0.56
2019-01-19T21:41:39.528Z,-0.34
2019-01-19T21:44:08.415Z,-0.63
2019-01-19T21:46:37.308Z,-0.69
2019-01-19T21:49:06.228Z,-0.85
2019-01-19T21:51:35.116Z,-0.83
2019-01-19T21:54:04.046Z,-0.84
2019-01-19T21:56:32.973Z,-0.89
2019-01-19T21:59:01.872Z,-0.98
2019-01-19T22:01:30.768Z,-0.68
2019-01-19T22:03:59.669Z,-0.55
2019-01-19T22:06:28.565Z,-0.76
2019-01-19T22:08:57.477Z,-0.89
2019-01-19T22:11:26.423Z,-0.93
2019-01-19T22:13:55.333Z,-0.91
2019-01-19T22:16:24.204Z,-1.00
2019-01-19T22:18:53.160Z,-1.09
2019-01-19T22:21:22.058Z,-0.76
2019-01-19T22:23:50.947Z,-1.01
2019-01-19T22:26:19.848Z,-1.07
2019-01-19T22:28:48.720Z,-1.09
2019-01-19T22:31:17.640Z,-1.07
2019-01-19T22:33:46.543Z,-1.13
2019-01-19T22:36:15.437Z,-1.18
2019-01-19T22:38:44.323Z,-0.80
2019-01-19T22:41:13.227Z,-1.09
2019-01-19T22:43:42.087Z,-0.71
2019-01-19T22:46:10.956Z,-1.01
2019-01-19T22:48:39.841Z,-1.09
2019-01-19T22:51:11.294Z,-1.09
2019-01-19T22:53:37.625Z,-1.08
2019-01-19T22:56:06.647Z,-1.09
2019-01-19T22:58:35.552Z,-1.12
2019-01-19T23:01:34.315Z,-1.17
2019-01-19T23:04:03.221Z,-0.76
2019-01-19T23:06:32.110Z,-1.03
2019-01-19T23:09:00.990Z,-1.05
2019-01-19T23:11:33.933Z,-1.12
2019-01-19T23:13:58.748Z,-1.06
2019-01-19T23:16:27.671Z,-1.07
2019-01-19T23:18:56.638Z,-1.15
2019-01-19T23:21:25.506Z,-1.07
2019-01-19T23:23:54.397Z,-1.14
2019-01-19T23:26:23.311Z,-1.20
2019-01-19T23:28:52.191Z,-1.27
2019-01-19T23:31:21.080Z,-1.26
2019-01-19T23:33:49.989Z,-1.24
2019-01-19T23:36:18.853Z,-1.20
2019-01-19T23:38:47.842Z,-1.21
2019-01-19T23:41:16.725Z,-1.19
2019-01-19T23:43:45.603Z,-1.13
2019-01-19T23:46:14.519Z,-1.13
2019-01-19T23:48:43.438Z,-1.26
2019-01-19T23:51:12.324Z,-1.32
2019-01-19T23:53:41.216Z,-1.40
2019-01-19T23:56:10.095Z,-1.51
2019-01-19T23:58:38.980Z,-1.60
